sensor_id;sensor_type;location;lat;lon;timestamp;P1;durP1;ratioP1;P2;durP2;ratioP2
71639;SDS011;60912;48.968;10.124;2023-06-19T00:01:14;8.47;;;5.80;;
71639;SDS011;60912;48.968;10.124;2023-06-19T00:03:39;7.53;;;5.40;;
71639;SDS011;60912;48.968;10.124;2023-06-19T00:06:05;8.13;;;5.13;;
71639;SDS011;60912;48.968;10.124;2023-06-19T00:08:31;8.57;;;5.80;;
71639;SDS011;60912;48.968;10.124;2023-06-19T00:10:56;10.23;;;5.63;;
71639;SDS011;60912;48.968;10.124;2023-06-19T00:13:22;7.70;;;5.90;;
71639;SDS011;60912;48.968;10.124;2023-06-19T00:15:47;8.40;;;5.73;;
71639;SDS011;60912;48.968;10.124;2023-06-19T00:18:13;8.97;;;5.80;;
71639;SDS011;60912;48.968;10.124;2023-06-19T00:20:38;8.07;;;5.77;;
71639;SDS011;60912;48.968;10.124;2023-06-19T00:23:04;9.13;;;6.03;;
71639;SDS011;60912;48.968;10.124;2023-06-19T00:25:31;6.60;;;5.53;;
71639;SDS011;60912;48.968;10.124;2023-06-19T00:27:56;8.97;;;5.60;;
71639;SDS011;60912;48.968;10.124;2023-06-19T00:30:22;9.50;;;5.73;;
71639;SDS011;60912;48.968;10.124;2023-06-19T00:32:47;11.47;;;6.30;;
71639;SDS011;60912;48.968;10.124;2023-06-19T00:35:14;9.85;;;5.70;;
71639;SDS011;60912;48.968;10.124;2023-06-19T00:37:43;6.82;;;5.53;;
71639;SDS011;60912;48.968;10.124;2023-06-19T00:40:30;9.65;;;5.97;;
71639;SDS011;60912;48.968;10.124;2023-06-19T00:42:57;8.23;;;5.90;;
71639;SDS011;60912;48.968;10.124;2023-06-19T00:45:23;6.90;;;5.30;;
71639;SDS011;60912;48.968;10.124;2023-06-19T00:47:50;8.82;;;6.18;;
71639;SDS011;60912;48.968;10.124;2023-06-19T00:50:16;7.30;;;5.35;;
71639;SDS011;60912;48.968;10.124;2023-06-19T00:52:42;8.40;;;5.57;;
71639;SDS011;60912;48.968;10.124;2023-06-19T00:55:08;7.57;;;5.87;;
71639;SDS011;60912;48.968;10.124;2023-06-19T00:57:34;8.38;;;5.70;;
71639;SDS011;60912;48.968;10.124;2023-06-19T01:00:01;9.68;;;5.80;;
71639;SDS011;60912;48.968;10.124;2023-06-19T01:02:29;7.53;;;5.55;;
71639;SDS011;60912;48.968;10.124;2023-06-19T01:04:55;8.65;;;6.18;;
71639;SDS011;60912;48.968;10.124;2023-06-19T01:10:08;9.38;;;6.70;;
71639;SDS011;60912;48.968;10.124;2023-06-19T01:12:40;11.82;;;6.93;;
71639;SDS011;60912;48.968;10.124;2023-06-19T01:15:15;10.05;;;6.90;;
71639;SDS011;60912;48.968;10.124;2023-06-19T01:17:41;8.33;;;6.30;;
71639;SDS011;60912;48.968;10.124;2023-06-19T01:20:07;8.65;;;5.78;;
71639;SDS011;60912;48.968;10.124;2023-06-19T01:22:36;9.80;;;6.28;;
71639;SDS011;60912;48.968;10.124;2023-06-19T01:25:01;8.30;;;6.17;;
71639;SDS011;60912;48.968;10.124;2023-06-19T01:27:29;8.18;;;5.72;;
71639;SDS011;60912;48.968;10.124;2023-06-19T01:29:55;9.80;;;5.97;;
71639;SDS011;60912;48.968;10.124;2023-06-19T01:32:46;9.80;;;6.25;;
71639;SDS011;60912;48.968;10.124;2023-06-19T01:35:31;9.10;;;6.07;;
71639;SDS011;60912;48.968;10.124;2023-06-19T01:37:59;8.80;;;6.50;;
71639;SDS011;60912;48.968;10.124;2023-06-19T01:40:26;10.23;;;6.05;;
71639;SDS011;60912;48.968;10.124;2023-06-19T01:42:56;9.25;;;6.05;;
71639;SDS011;60912;48.968;10.124;2023-06-19T01:45:24;7.35;;;5.88;;
71639;SDS011;60912;48.968;10.124;2023-06-19T01:47:50;8.63;;;5.87;;
71639;SDS011;60912;48.968;10.124;2023-06-19T01:50:15;8.77;;;5.97;;
71639;SDS011;60912;48.968;10.124;2023-06-19T01:52:41;6.67;;;5.50;;
71639;SDS011;60912;48.968;10.124;2023-06-19T01:55:07;8.03;;;6.10;;
71639;SDS011;60912;48.968;10.124;2023-06-19T01:57:32;9.15;;;6.30;;
71639;SDS011;60912;48.968;10.124;2023-06-19T01:59:58;8.10;;;6.07;;
71639;SDS011;60912;48.968;10.124;2023-06-19T02:02:23;8.32;;;6.20;;
71639;SDS011;60912;48.968;10.124;2023-06-19T02:04:48;7.80;;;6.27;;
71639;SDS011;60912;48.968;10.124;2023-06-19T02:07:14;8.27;;;6.10;;
71639;SDS011;60912;48.968;10.124;2023-06-19T02:09:40;7.30;;;5.57;;
71639;SDS011;60912;48.968;10.124;2023-06-19T02:12:06;6.88;;;5.70;;
71639;SDS011;60912;48.968;10.124;2023-06-19T02:14:32;11.10;;;6.03;;
71639;SDS011;60912;48.968;10.124;2023-06-19T02:16:57;7.57;;;6.30;;
71639;SDS011;60912;48.968;10.124;2023-06-19T02:19:23;9.10;;;6.23;;
71639;SDS011;60912;48.968;10.124;2023-06-19T02:21:48;8.73;;;5.97;;
71639;SDS011;60912;48.968;10.124;2023-06-19T02:24:13;10.95;;;6.20;;
71639;SDS011;60912;48.968;10.124;2023-06-19T02:26:39;8.77;;;6.33;;
71639;SDS011;60912;48.968;10.124;2023-06-19T02:29:04;7.93;;;6.50;;
71639;SDS011;60912;48.968;10.124;2023-06-19T02:31:30;8.40;;;6.40;;
71639;SDS011;60912;48.968;10.124;2023-06-19T02:33:55;9.13;;;6.13;;
71639;SDS011;60912;48.968;10.124;2023-06-19T02:36:20;8.57;;;6.13;;
71639;SDS011;60912;48.968;10.124;2023-06-19T02:38:46;7.83;;;6.13;;
71639;SDS011;60912;48.968;10.124;2023-06-19T02:41:12;9.30;;;6.35;;
71639;SDS011;60912;48.968;10.124;2023-06-19T02:43:39;9.17;;;5.50;;
71639;SDS011;60912;48.968;10.124;2023-06-19T02:46:07;5.93;;;5.00;;
71639;SDS011;60912;48.968;10.124;2023-06-19T02:48:34;6.25;;;4.55;;
71639;SDS011;60912;48.968;10.124;2023-06-19T02:50:59;6.25;;;4.30;;
71639;SDS011;60912;48.968;10.124;2023-06-19T02:53:25;9.37;;;4.17;;
71639;SDS011;60912;48.968;10.124;2023-06-19T02:55:50;5.27;;;3.97;;
71639;SDS011;60912;48.968;10.124;2023-06-19T02:58:16;5.90;;;4.13;;
71639;SDS011;60912;48.968;10.124;2023-06-19T03:00:41;6.10;;;3.97;;
71639;SDS011;60912;48.968;10.124;2023-06-19T03:03:06;5.70;;;3.87;;
71639;SDS011;60912;48.968;10.124;2023-06-19T03:05:32;4.43;;;3.53;;
71639;SDS011;60912;48.968;10.124;2023-06-19T03:07:57;7.63;;;3.70;;
71639;SDS011;60912;48.968;10.124;2023-06-19T03:10:22;5.60;;;3.67;;
71639;SDS011;60912;48.968;10.124;2023-06-19T03:12:48;7.03;;;3.93;;
71639;SDS011;60912;48.968;10.124;2023-06-19T03:15:13;8.20;;;3.57;;
71639;SDS011;60912;48.968;10.124;2023-06-19T03:17:38;5.80;;;3.70;;
71639;SDS011;60912;48.968;10.124;2023-06-19T03:20:04;5.40;;;3.60;;
71639;SDS011;60912;48.968;10.124;2023-06-19T03:22:30;5.45;;;3.45;;
71639;SDS011;60912;48.968;10.124;2023-06-19T03:24:56;7.50;;;3.60;;
71639;SDS011;60912;48.968;10.124;2023-06-19T03:27:22;5.57;;;3.57;;
71639;SDS011;60912;48.968;10.124;2023-06-19T03:29:49;5.15;;;3.70;;
71639;SDS011;60912;48.968;10.124;2023-06-19T03:32:15;5.13;;;3.50;;
71639;SDS011;60912;48.968;10.124;2023-06-19T03:34:40;5.83;;;3.33;;
71639;SDS011;60912;48.968;10.124;2023-06-19T03:37:05;4.80;;;3.53;;
71639;SDS011;60912;48.968;10.124;2023-06-19T03:39:31;5.30;;;3.55;;
71639;SDS011;60912;48.968;10.124;2023-06-19T03:41:56;5.13;;;3.40;;
71639;SDS011;60912;48.968;10.124;2023-06-19T03:44:21;8.10;;;3.67;;
71639;SDS011;60912;48.968;10.124;2023-06-19T03:46:47;7.73;;;3.80;;
71639;SDS011;60912;48.968;10.124;2023-06-19T03:49:12;5.40;;;3.80;;
71639;SDS011;60912;48.968;10.124;2023-06-19T03:51:38;5.20;;;3.80;;
71639;SDS011;60912;48.968;10.124;2023-06-19T03:54:03;6.93;;;4.13;;
71639;SDS011;60912;48.968;10.124;2023-06-19T03:56:28;4.50;;;3.70;;
71639;SDS011;60912;48.968;10.124;2023-06-19T03:58:54;8.07;;;3.43;;
71639;SDS011;60912;48.968;10.124;2023-06-19T04:01:19;6.50;;;3.63;;
71639;SDS011;60912;48.968;10.124;2023-06-19T04:03:44;5.77;;;3.70;;
71639;SDS011;60912;48.968;10.124;2023-06-19T04:06:10;7.05;;;3.65;;
71639;SDS011;60912;48.968;10.124;2023-06-19T04:08:35;4.80;;;3.43;;
71639;SDS011;60912;48.968;10.124;2023-06-19T04:11:01;7.57;;;3.80;;
71639;SDS011;60912;48.968;10.124;2023-06-19T04:13:26;4.57;;;3.78;;
71639;SDS011;60912;48.968;10.124;2023-06-19T04:15:52;5.10;;;3.60;;
71639;SDS011;60912;48.968;10.124;2023-06-19T04:18:17;5.40;;;3.90;;
71639;SDS011;60912;48.968;10.124;2023-06-19T04:20:42;5.87;;;3.67;;
71639;SDS011;60912;48.968;10.124;2023-06-19T04:23:08;5.70;;;3.30;;
71639;SDS011;60912;48.968;10.124;2023-06-19T04:25:34;5.27;;;3.73;;
71639;SDS011;60912;48.968;10.124;2023-06-19T04:27:59;6.72;;;3.85;;
71639;SDS011;60912;48.968;10.124;2023-06-19T04:30:28;6.30;;;3.75;;
71639;SDS011;60912;48.968;10.124;2023-06-19T04:32:54;5.57;;;3.93;;
71639;SDS011;60912;48.968;10.124;2023-06-19T04:35:19;5.93;;;3.67;;
71639;SDS011;60912;48.968;10.124;2023-06-19T04:37:45;6.53;;;4.37;;
71639;SDS011;60912;48.968;10.124;2023-06-19T04:40:10;6.03;;;4.30;;
71639;SDS011;60912;48.968;10.124;2023-06-19T04:42:36;5.90;;;3.63;;
71639;SDS011;60912;48.968;10.124;2023-06-19T04:45:04;6.30;;;3.77;;
71639;SDS011;60912;48.968;10.124;2023-06-19T04:47:32;6.97;;;4.43;;
71639;SDS011;60912;48.968;10.124;2023-06-19T04:49:58;4.93;;;3.88;;
71639;SDS011;60912;48.968;10.124;2023-06-19T04:52:23;7.17;;;4.30;;
71639;SDS011;60912;48.968;10.124;2023-06-19T04:54:48;9.30;;;4.40;;
71639;SDS011;60912;48.968;10.124;2023-06-19T04:57:14;6.33;;;4.90;;
71639;SDS011;60912;48.968;10.124;2023-06-19T04:59:39;7.18;;;4.65;;
71639;SDS011;60912;48.968;10.124;2023-06-19T05:02:06;6.55;;;4.55;;
71639;SDS011;60912;48.968;10.124;2023-06-19T05:04:32;7.27;;;4.63;;
71639;SDS011;60912;48.968;10.124;2023-06-19T05:06:58;8.73;;;4.87;;
71639;SDS011;60912;48.968;10.124;2023-06-19T05:09:24;29.25;;;5.95;;
71639;SDS011;60912;48.968;10.124;2023-06-19T05:11:49;15.13;;;5.77;;
71639;SDS011;60912;48.968;10.124;2023-06-19T05:14:14;10.15;;;4.95;;
71639;SDS011;60912;48.968;10.124;2023-06-19T05:16:40;6.63;;;4.63;;
71639;SDS011;60912;48.968;10.124;2023-06-19T05:19:05;6.80;;;4.77;;
71639;SDS011;60912;48.968;10.124;2023-06-19T05:21:31;13.83;;;5.70;;
71639;SDS011;60912;48.968;10.124;2023-06-19T05:23:56;7.18;;;5.07;;
71639;SDS011;60912;48.968;10.124;2023-06-19T05:26:21;6.97;;;5.00;;
71639;SDS011;60912;48.968;10.124;2023-06-19T05:28:48;7.18;;;4.60;;
71639;SDS011;60912;48.968;10.124;2023-06-19T05:31:13;8.80;;;4.80;;
71639;SDS011;60912;48.968;10.124;2023-06-19T05:33:39;6.25;;;5.00;;
71639;SDS011;60912;48.968;10.124;2023-06-19T05:36:05;6.17;;;4.80;;
71639;SDS011;60912;48.968;10.124;2023-06-19T05:38:31;6.40;;;4.45;;
71639;SDS011;60912;48.968;10.124;2023-06-19T05:40:57;6.90;;;4.70;;
71639;SDS011;60912;48.968;10.124;2023-06-19T05:43:22;6.32;;;4.60;;
71639;SDS011;60912;48.968;10.124;2023-06-19T05:45:49;6.22;;;4.38;;
71639;SDS011;60912;48.968;10.124;2023-06-19T05:48:15;6.20;;;4.23;;
71639;SDS011;60912;48.968;10.124;2023-06-19T05:50:40;5.73;;;4.30;;
71639;SDS011;60912;48.968;10.124;2023-06-19T05:53:06;7.90;;;4.37;;
71639;SDS011;60912;48.968;10.124;2023-06-19T05:55:31;7.00;;;4.77;;
71639;SDS011;60912;48.968;10.124;2023-06-19T05:57:57;5.93;;;4.00;;
71639;SDS011;60912;48.968;10.124;2023-06-19T06:00:22;6.03;;;4.55;;
71639;SDS011;60912;48.968;10.124;2023-06-19T06:02:48;6.07;;;4.10;;
71639;SDS011;60912;48.968;10.124;2023-06-19T06:05:15;6.95;;;4.22;;
71639;SDS011;60912;48.968;10.124;2023-06-19T06:07:42;5.60;;;4.20;;
71639;SDS011;60912;48.968;10.124;2023-06-19T06:10:08;5.50;;;3.93;;
71639;SDS011;60912;48.968;10.124;2023-06-19T06:12:34;4.88;;;3.92;;
71639;SDS011;60912;48.968;10.124;2023-06-19T06:15:00;6.60;;;4.20;;
71639;SDS011;60912;48.968;10.124;2023-06-19T06:17:30;5.33;;;3.97;;
71639;SDS011;60912;48.968;10.124;2023-06-19T06:19:56;5.57;;;4.25;;
71639;SDS011;60912;48.968;10.124;2023-06-19T06:22:21;6.33;;;3.93;;
71639;SDS011;60912;48.968;10.124;2023-06-19T06:24:46;5.60;;;4.00;;
71639;SDS011;60912;48.968;10.124;2023-06-19T06:27:12;5.57;;;3.77;;
71639;SDS011;60912;48.968;10.124;2023-06-19T06:29:38;6.10;;;3.90;;
71639;SDS011;60912;48.968;10.124;2023-06-19T06:32:04;6.73;;;3.73;;
71639;SDS011;60912;48.968;10.124;2023-06-19T06:34:31;7.07;;;3.60;;
71639;SDS011;60912;48.968;10.124;2023-06-19T06:36:57;7.50;;;3.40;;
71639;SDS011;60912;48.968;10.124;2023-06-19T06:39:23;5.47;;;3.75;;
71639;SDS011;60912;48.968;10.124;2023-06-19T06:41:49;6.10;;;3.83;;
71639;SDS011;60912;48.968;10.124;2023-06-19T06:44:14;5.22;;;3.90;;
71639;SDS011;60912;48.968;10.124;2023-06-19T06:46:40;5.63;;;3.47;;
71639;SDS011;60912;48.968;10.124;2023-06-19T06:49:05;5.30;;;4.10;;
71639;SDS011;60912;48.968;10.124;2023-06-19T06:51:30;5.27;;;4.00;;
71639;SDS011;60912;48.968;10.124;2023-06-19T06:53:56;5.77;;;3.70;;
71639;SDS011;60912;48.968;10.124;2023-06-19T06:56:21;6.80;;;3.60;;
71639;SDS011;60912;48.968;10.124;2023-06-19T06:58:47;6.22;;;3.60;;
71639;SDS011;60912;48.968;10.124;2023-06-19T07:01:12;6.47;;;3.50;;
71639;SDS011;60912;48.968;10.124;2023-06-19T07:03:37;6.10;;;3.73;;
71639;SDS011;60912;48.968;10.124;2023-06-19T07:06:04;6.30;;;3.80;;
71639;SDS011;60912;48.968;10.124;2023-06-19T07:08:29;4.67;;;3.70;;
71639;SDS011;60912;48.968;10.124;2023-06-19T07:10:55;5.40;;;3.67;;
71639;SDS011;60912;48.968;10.124;2023-06-19T07:13:20;4.50;;;3.70;;
71639;SDS011;60912;48.968;10.124;2023-06-19T07:15:46;5.03;;;3.40;;
71639;SDS011;60912;48.968;10.124;2023-06-19T07:18:11;4.97;;;3.80;;
71639;SDS011;60912;48.968;10.124;2023-06-19T07:20:36;4.70;;;3.67;;
71639;SDS011;60912;48.968;10.124;2023-06-19T07:23:02;5.80;;;3.87;;
71639;SDS011;60912;48.968;10.124;2023-06-19T07:25:27;5.82;;;3.40;;
71639;SDS011;60912;48.968;10.124;2023-06-19T07:27:52;4.47;;;3.50;;
71639;SDS011;60912;48.968;10.124;2023-06-19T07:30:18;4.70;;;3.40;;
71639;SDS011;60912;48.968;10.124;2023-06-19T07:32:43;6.20;;;3.27;;
71639;SDS011;60912;48.968;10.124;2023-06-19T07:35:09;4.13;;;3.10;;
71639;SDS011;60912;48.968;10.124;2023-06-19T07:37:36;4.13;;;3.00;;
71639;SDS011;60912;48.968;10.124;2023-06-19T07:40:01;4.28;;;3.20;;
71639;SDS011;60912;48.968;10.124;2023-06-19T07:42:27;4.53;;;3.13;;
71639;SDS011;60912;48.968;10.124;2023-06-19T07:44:52;5.10;;;3.10;;
71639;SDS011;60912;48.968;10.124;2023-06-19T07:47:18;4.30;;;2.80;;
71639;SDS011;60912;48.968;10.124;2023-06-19T07:49:44;4.20;;;2.53;;
71639;SDS011;60912;48.968;10.124;2023-06-19T07:52:10;5.88;;;3.28;;
71639;SDS011;60912;48.968;10.124;2023-06-19T07:54:35;4.23;;;3.03;;
71639;SDS011;60912;48.968;10.124;2023-06-19T07:57:01;4.80;;;2.80;;
71639;SDS011;60912;48.968;10.124;2023-06-19T07:59:27;3.78;;;2.58;;
71639;SDS011;60912;48.968;10.124;2023-06-19T08:01:52;3.97;;;2.83;;
71639;SDS011;60912;48.968;10.124;2023-06-19T08:04:17;4.60;;;2.78;;
71639;SDS011;60912;48.968;10.124;2023-06-19T08:06:43;4.93;;;3.00;;
71639;SDS011;60912;48.968;10.124;2023-06-19T08:09:08;3.90;;;2.80;;
71639;SDS011;60912;48.968;10.124;2023-06-19T08:11:33;3.83;;;2.67;;
71639;SDS011;60912;48.968;10.124;2023-06-19T08:14:00;3.53;;;2.80;;
71639;SDS011;60912;48.968;10.124;2023-06-19T08:16:26;3.70;;;2.63;;
71639;SDS011;60912;48.968;10.124;2023-06-19T08:18:51;3.63;;;2.60;;
71639;SDS011;60912;48.968;10.124;2023-06-19T08:21:17;3.70;;;2.80;;
71639;SDS011;60912;48.968;10.124;2023-06-19T08:23:42;4.17;;;2.60;;
71639;SDS011;60912;48.968;10.124;2023-06-19T08:26:09;3.63;;;2.80;;
71639;SDS011;60912;48.968;10.124;2023-06-19T08:28:35;4.65;;;2.70;;
71639;SDS011;60912;48.968;10.124;2023-06-19T08:31:00;4.63;;;2.70;;
71639;SDS011;60912;48.968;10.124;2023-06-19T08:33:25;5.87;;;3.20;;
71639;SDS011;60912;48.968;10.124;2023-06-19T08:35:51;8.13;;;2.87;;
71639;SDS011;60912;48.968;10.124;2023-06-19T08:38:17;4.45;;;2.40;;
71639;SDS011;60912;48.968;10.124;2023-06-19T08:40:43;4.65;;;2.53;;
71639;SDS011;60912;48.968;10.124;2023-06-19T08:43:09;3.83;;;2.60;;
71639;SDS011;60912;48.968;10.124;2023-06-19T08:45:34;3.53;;;2.33;;
71639;SDS011;60912;48.968;10.124;2023-06-19T08:48:03;4.13;;;2.37;;
71639;SDS011;60912;48.968;10.124;2023-06-19T08:50:32;4.10;;;2.15;;
71639;SDS011;60912;48.968;10.124;2023-06-19T08:52:57;4.35;;;2.20;;
71639;SDS011;60912;48.968;10.124;2023-06-19T08:55:23;3.08;;;2.22;;
71639;SDS011;60912;48.968;10.124;2023-06-19T08:57:49;5.10;;;2.43;;
71639;SDS011;60912;48.968;10.124;2023-06-19T09:00:28;3.17;;;2.15;;
71639;SDS011;60912;48.968;10.124;2023-06-19T09:03:01;5.43;;;2.10;;
71639;SDS011;60912;48.968;10.124;2023-06-19T09:05:27;4.10;;;2.00;;
71639;SDS011;60912;48.968;10.124;2023-06-19T09:07:57;3.23;;;1.87;;
71639;SDS011;60912;48.968;10.124;2023-06-19T09:10:25;3.70;;;2.28;;
71639;SDS011;60912;48.968;10.124;2023-06-19T09:13:02;3.00;;;2.10;;
71639;SDS011;60912;48.968;10.124;2023-06-19T09:15:32;3.53;;;2.30;;
71639;SDS011;60912;48.968;10.124;2023-06-19T09:18:00;5.47;;;2.10;;
71639;SDS011;60912;48.968;10.124;2023-06-19T09:20:27;4.68;;;2.20;;
71639;SDS011;60912;48.968;10.124;2023-06-19T09:22:57;3.53;;;2.25;;
71639;SDS011;60912;48.968;10.124;2023-06-19T09:25:22;5.93;;;2.55;;
71639;SDS011;60912;48.968;10.124;2023-06-19T09:27:52;3.67;;;1.90;;
71639;SDS011;60912;48.968;10.124;2023-06-19T09:30:19;3.15;;;1.95;;
71639;SDS011;60912;48.968;10.124;2023-06-19T09:32:45;3.40;;;1.65;;
71639;SDS011;60912;48.968;10.124;2023-06-19T09:35:10;3.67;;;1.60;;
71639;SDS011;60912;48.968;10.124;2023-06-19T09:37:35;3.30;;;1.70;;
71639;SDS011;60912;48.968;10.124;2023-06-19T09:40:03;4.60;;;2.00;;
71639;SDS011;60912;48.968;10.124;2023-06-19T09:42:39;2.67;;;1.60;;
71639;SDS011;60912;48.968;10.124;2023-06-19T09:45:10;3.05;;;1.60;;
71639;SDS011;60912;48.968;10.124;2023-06-19T09:47:42;2.60;;;1.63;;
71639;SDS011;60912;48.968;10.124;2023-06-19T09:50:11;3.67;;;2.00;;
71639;SDS011;60912;48.968;10.124;2023-06-19T09:52:39;2.88;;;1.80;;
71639;SDS011;60912;48.968;10.124;2023-06-19T09:55:09;4.10;;;1.77;;
71639;SDS011;60912;48.968;10.124;2023-06-19T09:57:38;3.72;;;1.85;;
71639;SDS011;60912;48.968;10.124;2023-06-19T10:00:05;4.50;;;1.85;;
71639;SDS011;60912;48.968;10.124;2023-06-19T10:02:40;3.30;;;2.10;;
71639;SDS011;60912;48.968;10.124;2023-06-19T10:05:07;3.60;;;2.00;;
71639;SDS011;60912;48.968;10.124;2023-06-19T10:07:42;3.05;;;1.92;;
71639;SDS011;60912;48.968;10.124;2023-06-19T10:10:21;3.78;;;1.92;;
71639;SDS011;60912;48.968;10.124;2023-06-19T10:12:48;3.53;;;1.90;;
71639;SDS011;60912;48.968;10.124;2023-06-19T10:18:05;2.97;;;2.00;;
71639;SDS011;60912;48.968;10.124;2023-06-19T10:20:30;3.83;;;2.00;;
71639;SDS011;60912;48.968;10.124;2023-06-19T10:25:32;6.43;;;1.92;;
71639;SDS011;60912;48.968;10.124;2023-06-19T10:27:59;3.20;;;1.80;;
71639;SDS011;60912;48.968;10.124;2023-06-19T10:30:25;3.72;;;2.13;;
71639;SDS011;60912;48.968;10.124;2023-06-19T10:32:51;3.20;;;1.80;;
71639;SDS011;60912;48.968;10.124;2023-06-19T10:35:17;3.63;;;2.10;;
71639;SDS011;60912;48.968;10.124;2023-06-19T10:37:46;3.70;;;1.97;;
71639;SDS011;60912;48.968;10.124;2023-06-19T10:40:12;3.42;;;2.00;;
71639;SDS011;60912;48.968;10.124;2023-06-19T10:42:41;3.00;;;2.08;;
71639;SDS011;60912;48.968;10.124;2023-06-19T10:45:08;3.47;;;1.80;;
71639;SDS011;60912;48.968;10.124;2023-06-19T10:47:38;2.90;;;1.80;;
71639;SDS011;60912;48.968;10.124;2023-06-19T10:50:05;2.95;;;1.73;;
71639;SDS011;60912;48.968;10.124;2023-06-19T10:52:43;2.80;;;1.70;;
71639;SDS011;60912;48.968;10.124;2023-06-19T10:55:10;2.90;;;1.70;;
71639;SDS011;60912;48.968;10.124;2023-06-19T10:57:36;4.23;;;1.90;;
71639;SDS011;60912;48.968;10.124;2023-06-19T11:00:02;2.97;;;1.90;;
71639;SDS011;60912;48.968;10.124;2023-06-19T11:02:36;3.10;;;1.90;;
71639;SDS011;60912;48.968;10.124;2023-06-19T11:05:05;4.83;;;1.70;;
71639;SDS011;60912;48.968;10.124;2023-06-19T11:07:31;4.07;;;1.65;;
71639;SDS011;60912;48.968;10.124;2023-06-19T11:09:57;2.80;;;1.70;;
71639;SDS011;60912;48.968;10.124;2023-06-19T11:12:23;3.40;;;1.70;;
71639;SDS011;60912;48.968;10.124;2023-06-19T11:14:48;2.90;;;1.50;;
71639;SDS011;60912;48.968;10.124;2023-06-19T11:17:14;2.57;;;1.57;;
71639;SDS011;60912;48.968;10.124;2023-06-19T11:19:40;2.75;;;1.65;;
71639;SDS011;60912;48.968;10.124;2023-06-19T11:22:08;2.85;;;1.67;;
71639;SDS011;60912;48.968;10.124;2023-06-19T11:24:34;4.23;;;1.70;;
71639;SDS011;60912;48.968;10.124;2023-06-19T11:27:00;2.07;;;1.20;;
71639;SDS011;60912;48.968;10.124;2023-06-19T11:29:26;3.03;;;1.57;;
71639;SDS011;60912;48.968;10.124;2023-06-19T11:32:04;2.90;;;1.70;;
71639;SDS011;60912;48.968;10.124;2023-06-19T11:34:32;2.88;;;1.50;;
71639;SDS011;60912;48.968;10.124;2023-06-19T11:37:14;2.10;;;1.27;;
71639;SDS011;60912;48.968;10.124;2023-06-19T11:39:40;3.38;;;1.58;;
71639;SDS011;60912;48.968;10.124;2023-06-19T11:42:08;3.53;;;1.50;;
71639;SDS011;60912;48.968;10.124;2023-06-19T11:44:33;3.10;;;1.60;;
71639;SDS011;60912;48.968;10.124;2023-06-19T11:46:59;2.97;;;1.60;;
71639;SDS011;60912;48.968;10.124;2023-06-19T11:49:25;9.38;;;2.50;;
71639;SDS011;60912;48.968;10.124;2023-06-19T11:51:51;5.10;;;2.10;;
71639;SDS011;60912;48.968;10.124;2023-06-19T11:54:16;4.40;;;1.70;;
71639;SDS011;60912;48.968;10.124;2023-06-19T11:56:45;3.63;;;1.50;;
71639;SDS011;60912;48.968;10.124;2023-06-19T11:59:12;3.03;;;1.70;;
71639;SDS011;60912;48.968;10.124;2023-06-19T12:01:39;6.07;;;1.58;;
71639;SDS011;60912;48.968;10.124;2023-06-19T12:04:05;3.22;;;1.40;;
71639;SDS011;60912;48.968;10.124;2023-06-19T12:06:30;2.93;;;1.50;;
71639;SDS011;60912;48.968;10.124;2023-06-19T12:08:56;2.60;;;1.48;;
71639;SDS011;60912;48.968;10.124;2023-06-19T12:11:21;3.57;;;2.07;;
71639;SDS011;60912;48.968;10.124;2023-06-19T12:13:47;3.63;;;2.27;;
71639;SDS011;60912;48.968;10.124;2023-06-19T12:16:13;4.40;;;2.30;;
71639;SDS011;60912;48.968;10.124;2023-06-19T12:18:39;3.60;;;2.20;;
71639;SDS011;60912;48.968;10.124;2023-06-19T12:21:05;3.50;;;2.27;;
71639;SDS011;60912;48.968;10.124;2023-06-19T12:23:30;3.63;;;2.30;;
71639;SDS011;60912;48.968;10.124;2023-06-19T12:25:56;3.30;;;2.10;;
71639;SDS011;60912;48.968;10.124;2023-06-19T12:28:22;6.68;;;2.22;;
71639;SDS011;60912;48.968;10.124;2023-06-19T12:30:47;4.63;;;2.07;;
71639;SDS011;60912;48.968;10.124;2023-06-19T12:33:16;3.78;;;2.20;;
71639;SDS011;60912;48.968;10.124;2023-06-19T12:35:42;4.25;;;2.10;;
71639;SDS011;60912;48.968;10.124;2023-06-19T12:38:08;4.47;;;2.23;;
71639;SDS011;60912;48.968;10.124;2023-06-19T12:40:33;3.33;;;2.30;;
71639;SDS011;60912;48.968;10.124;2023-06-19T12:42:59;4.40;;;2.00;;
71639;SDS011;60912;48.968;10.124;2023-06-19T12:45:24;3.83;;;2.33;;
71639;SDS011;60912;48.968;10.124;2023-06-19T12:47:50;2.90;;;2.10;;
71639;SDS011;60912;48.968;10.124;2023-06-19T12:50:15;4.07;;;3.00;;
71639;SDS011;60912;48.968;10.124;2023-06-19T12:52:41;2.43;;;1.53;;
71639;SDS011;60912;48.968;10.124;2023-06-19T12:55:06;4.10;;;1.73;;
71639;SDS011;60912;48.968;10.124;2023-06-19T12:57:32;2.50;;;1.63;;
71639;SDS011;60912;48.968;10.124;2023-06-19T12:59:57;3.83;;;1.50;;
71639;SDS011;60912;48.968;10.124;2023-06-19T13:02:23;2.53;;;1.50;;
71639;SDS011;60912;48.968;10.124;2023-06-19T13:04:48;3.93;;;1.50;;
71639;SDS011;60912;48.968;10.124;2023-06-19T13:07:13;3.13;;;1.98;;
71639;SDS011;60912;48.968;10.124;2023-06-19T13:09:39;2.90;;;1.70;;
71639;SDS011;60912;48.968;10.124;2023-06-19T13:12:04;3.23;;;1.70;;
71639;SDS011;60912;48.968;10.124;2023-06-19T13:14:30;3.35;;;2.00;;
71639;SDS011;60912;48.968;10.124;2023-06-19T13:16:57;6.10;;;1.98;;
71639;SDS011;60912;48.968;10.124;2023-06-19T13:19:22;4.00;;;2.00;;
71639;SDS011;60912;48.968;10.124;2023-06-19T13:21:48;2.75;;;1.70;;
71639;SDS011;60912;48.968;10.124;2023-06-19T13:24:13;2.90;;;1.70;;
71639;SDS011;60912;48.968;10.124;2023-06-19T13:26:39;5.00;;;1.67;;
71639;SDS011;60912;48.968;10.124;2023-06-19T13:29:04;3.65;;;1.60;;
71639;SDS011;60912;48.968;10.124;2023-06-19T13:31:30;5.37;;;2.00;;
71639;SDS011;60912;48.968;10.124;2023-06-19T13:33:55;3.80;;;1.83;;
71639;SDS011;60912;48.968;10.124;2023-06-19T13:36:21;4.27;;;1.70;;
71639;SDS011;60912;48.968;10.124;2023-06-19T13:38:48;3.72;;;1.65;;
71639;SDS011;60912;48.968;10.124;2023-06-19T13:41:13;3.53;;;1.77;;
71639;SDS011;60912;48.968;10.124;2023-06-19T13:43:39;3.33;;;1.80;;
71639;SDS011;60912;48.968;10.124;2023-06-19T13:46:05;2.63;;;1.63;;
71639;SDS011;60912;48.968;10.124;2023-06-19T13:48:31;3.85;;;1.70;;
71639;SDS011;60912;48.968;10.124;2023-06-19T13:50:57;3.22;;;1.70;;
71639;SDS011;60912;48.968;10.124;2023-06-19T13:53:24;4.75;;;1.80;;
71639;SDS011;60912;48.968;10.124;2023-06-19T13:55:50;4.23;;;1.80;;
71639;SDS011;60912;48.968;10.124;2023-06-19T13:58:15;11.82;;;2.20;;
71639;SDS011;60912;48.968;10.124;2023-06-19T14:00:41;4.00;;;1.70;;
71639;SDS011;60912;48.968;10.124;2023-06-19T14:03:06;3.67;;;1.70;;
71639;SDS011;60912;48.968;10.124;2023-06-19T14:05:32;4.07;;;1.80;;
71639;SDS011;60912;48.968;10.124;2023-06-19T14:07:58;2.70;;;1.58;;
71639;SDS011;60912;48.968;10.124;2023-06-19T14:10:23;3.28;;;1.65;;
71639;SDS011;60912;48.968;10.124;2023-06-19T14:12:49;4.80;;;1.87;;
71639;SDS011;60912;48.968;10.124;2023-06-19T14:15:14;3.00;;;1.60;;
71639;SDS011;60912;48.968;10.124;2023-06-19T14:17:40;4.60;;;1.80;;
71639;SDS011;60912;48.968;10.124;2023-06-19T14:20:06;5.43;;;1.73;;
71639;SDS011;60912;48.968;10.124;2023-06-19T14:22:33;3.03;;;1.77;;
71639;SDS011;60912;48.968;10.124;2023-06-19T14:24:59;4.10;;;1.80;;
71639;SDS011;60912;48.968;10.124;2023-06-19T14:27:26;3.15;;;1.88;;
71639;SDS011;60912;48.968;10.124;2023-06-19T14:29:53;3.27;;;1.80;;
71639;SDS011;60912;48.968;10.124;2023-06-19T14:32:22;7.07;;;2.10;;
71639;SDS011;60912;48.968;10.124;2023-06-19T14:34:51;4.78;;;2.00;;
71639;SDS011;60912;48.968;10.124;2023-06-19T14:37:16;3.17;;;1.70;;